sensor_id;sensor_type;location;lat;lon;timestamp;pressure;altitude;pressure_sealevel;temperature;humidity
29941;BME280;16801;53.562;10.038;2023-01-31T00:02:39;101612.81;;;8.05;65.56
29941;BME280;16801;53.562;10.038;2023-01-31T00:06:16;101606.13;;;7.98;65.99
29941;BME280;16801;53.562;10.038;2023-01-31T00:09:38;101604.31;;;8.25;65.24
29941;BME280;16801;53.562;10.038;2023-01-31T00:13:00;101600.63;;;7.99;66.48
29941;BME280;16801;53.562;10.038;2023-01-31T00:16:21;101607.69;;;7.88;67.22
29941;BME280;16801;53.562;10.038;2023-01-31T00:19:42;101603.69;;;7.81;67.36
29941;BME280;16801;53.562;10.038;2023-01-31T00:23:03;101606.88;;;7.73;66.98
29941;BME280;16801;53.562;10.038;2023-01-31T00:26:27;101616.63;;;7.88;66.72
29941;BME280;16801;53.562;10.038;2023-01-31T00:29:48;101620.25;;;7.47;67.58
29941;BME280;16801;53.562;10.038;2023-01-31T00:33:09;101620.91;;;7.50;67.19
29941;BME280;16801;53.562;10.038;2023-01-31T00:36:33;101624.84;;;7.85;66.65
29941;BME280;16801;53.562;10.038;2023-01-31T00:39:54;101625.25;;;7.79;66.88
29941;BME280;16801;53.562;10.038;2023-01-31T00:43:16;101644.38;;;7.61;68.11
29941;BME280;16801;53.562;10.038;2023-01-31T00:46:37;101645.63;;;7.96;67.50
29941;BME280;16801;53.562;10.038;2023-01-31T00:49:58;101637.44;;;8.24;66.13
29941;BME280;16801;53.562;10.038;2023-01-31T00:53:19;101639.97;;;8.27;66.56
29941;BME280;16801;53.562;10.038;2023-01-31T00:56:42;101642.78;;;7.85;68.69
29941;BME280;16801;53.562;10.038;2023-01-31T01:00:06;101668.38;;;8.17;69.32
29941;BME280;16801;53.562;10.038;2023-01-31T01:03:28;101645.88;;;7.79;69.59
29941;BME280;16801;53.562;10.038;2023-01-31T01:06:49;101656.56;;;7.52;70.10
29941;BME280;16801;53.562;10.038;2023-01-31T01:10:10;101648.28;;;7.55;70.04
29941;BME280;16801;53.562;10.038;2023-01-31T01:13:31;101637.19;;;7.47;69.69
29941;BME280;16801;53.562;10.038;2023-01-31T01:16:54;101647.44;;;7.41;71.03
29941;BME280;16801;53.562;10.038;2023-01-31T01:20:17;101647.94;;;7.33;71.45
29941;BME280;16801;53.562;10.038;2023-01-31T01:23:39;101649.06;;;7.43;71.64
29941;BME280;16801;53.562;10.038;2023-01-31T01:27:00;101649.84;;;7.59;70.49
29941;BME280;16801;53.562;10.038;2023-01-31T01:30:24;101655.59;;;7.67;70.16
29941;BME280;16801;53.562;10.038;2023-01-31T01:33:47;101659.22;;;7.66;70.12
29941;BME280;16801;53.562;10.038;2023-01-31T01:37:08;101647.34;;;7.97;69.61
29941;BME280;16801;53.562;10.038;2023-01-31T01:40:34;101653.03;;;7.78;69.78
29941;BME280;16801;53.562;10.038;2023-01-31T01:43:57;101650.34;;;7.92;69.11
29941;BME280;16801;53.562;10.038;2023-01-31T01:47:24;101643.66;;;7.85;69.43
29941;BME280;16801;53.562;10.038;2023-01-31T01:50:48;101652.13;;;7.65;70.45
29941;BME280;16801;53.562;10.038;2023-01-31T01:54:13;101644.63;;;7.70;69.95
29941;BME280;16801;53.562;10.038;2023-01-31T01:57:38;101643.78;;;7.56;70.27
29941;BME280;16801;53.562;10.038;2023-01-31T02:01:02;101656.19;;;7.44;70.36
29941;BME280;16801;53.562;10.038;2023-01-31T02:04:28;101658.78;;;7.17;71.75
29941;BME280;16801;53.562;10.038;2023-01-31T02:07:53;101668.16;;;7.53;70.22
29941;BME280;16801;53.562;10.038;2023-01-31T02:11:17;101661.63;;;7.43;70.58
29941;BME280;16801;53.562;10.038;2023-01-31T02:14:41;101670.38;;;7.46;70.49
29941;BME280;16801;53.562;10.038;2023-01-31T02:18:02;101673.94;;;7.87;69.42
29941;BME280;16801;53.562;10.038;2023-01-31T02:21:59;101665.91;;;7.73;69.60
29941;BME280;16801;53.562;10.038;2023-01-31T02:25:52;101686.09;;;7.93;69.00
29941;BME280;16801;53.562;10.038;2023-01-31T02:33:10;101676.06;;;7.68;70.10
29941;BME280;16801;53.562;10.038;2023-01-31T02:36:40;101684.50;;;7.62;71.00
29941;BME280;16801;53.562;10.038;2023-01-31T02:40:12;101680.84;;;7.77;70.22
29941;BME280;16801;53.562;10.038;2023-01-31T02:43:41;101680.00;;;7.77;69.69
29941;BME280;16801;53.562;10.038;2023-01-31T02:47:24;101682.16;;;7.84;69.53
29941;BME280;16801;53.562;10.038;2023-01-31T02:50:57;101695.16;;;7.64;70.33
29941;BME280;16801;53.562;10.038;2023-01-31T02:54:23;101677.06;;;7.67;71.14
29941;BME280;16801;53.562;10.038;2023-01-31T02:58:08;101692.84;;;7.86;70.41
29941;BME280;16801;53.562;10.038;2023-01-31T03:01:32;101693.69;;;7.72;70.44
29941;BME280;16801;53.562;10.038;2023-01-31T03:04:53;101692.22;;;7.40;71.99
29941;BME280;16801;53.562;10.038;2023-01-31T03:08:15;101691.72;;;7.48;71.53
29941;BME280;16801;53.562;10.038;2023-01-31T03:11:47;101682.59;;;7.64;72.14
29941;BME280;16801;53.562;10.038;2023-01-31T03:15:24;101684.44;;;7.36;73.34
29941;BME280;16801;53.562;10.038;2023-01-31T03:19:13;101684.28;;;6.95;74.34
29941;BME280;16801;53.562;10.038;2023-01-31T03:22:37;101678.22;;;7.21;73.45
29941;BME280;16801;53.562;10.038;2023-01-31T03:26:03;101669.28;;;6.92;75.35
29941;BME280;16801;53.562;10.038;2023-01-31T03:29:27;101662.84;;;6.95;75.26
29941;BME280;16801;53.562;10.038;2023-01-31T03:32:53;101652.34;;;7.48;73.33
29941;BME280;16801;53.562;10.038;2023-01-31T03:36:23;101653.97;;;7.51;73.17
29941;BME280;16801;53.562;10.038;2023-01-31T03:39:55;101651.19;;;7.52;73.35
29941;BME280;16801;53.562;10.038;2023-01-31T03:43:24;101651.69;;;7.02;74.98
29941;BME280;16801;53.562;10.038;2023-01-31T03:46:55;101664.84;;;6.63;76.04
29941;BME280;16801;53.562;10.038;2023-01-31T03:50:22;101664.75;;;6.79;76.59
29941;BME280;16801;53.562;10.038;2023-01-31T03:53:48;101664.69;;;6.94;76.22
29941;BME280;16801;53.562;10.038;2023-01-31T03:57:15;101657.84;;;6.75;76.17
29941;BME280;16801;53.562;10.038;2023-01-31T04:00:41;101661.81;;;6.54;77.70
29941;BME280;16801;53.562;10.038;2023-01-31T04:04:06;101660.53;;;6.45;77.82
29941;BME280;16801;53.562;10.038;2023-01-31T04:07:28;101655.69;;;6.52;77.99
29941;BME280;16801;53.562;10.038;2023-01-31T04:10:49;101669.75;;;6.55;77.67
29941;BME280;16801;53.562;10.038;2023-01-31T04:14:10;101673.31;;;6.56;77.93
29941;BME280;16801;53.562;10.038;2023-01-31T04:17:32;101663.28;;;6.59;77.52
29941;BME280;16801;53.562;10.038;2023-01-31T04:20:53;101665.78;;;6.76;77.77
29941;BME280;16801;53.562;10.038;2023-01-31T04:24:14;101657.81;;;6.90;77.30
29941;BME280;16801;53.562;10.038;2023-01-31T04:27:35;101649.66;;;6.48;78.61
29941;BME280;16801;53.562;10.038;2023-01-31T04:30:56;101647.38;;;6.56;79.35
29941;BME280;16801;53.562;10.038;2023-01-31T04:34:18;101638.63;;;6.38;79.51
29941;BME280;16801;53.562;10.038;2023-01-31T04:37:39;101638.56;;;6.84;77.88
29941;BME280;16801;53.562;10.038;2023-01-31T04:41:00;101646.50;;;6.56;79.76
29941;BME280;16801;53.562;10.038;2023-01-31T04:44:21;101648.44;;;6.54;79.64
29941;BME280;16801;53.562;10.038;2023-01-31T04:47:42;101636.81;;;6.69;80.01
29941;BME280;16801;53.562;10.038;2023-01-31T04:51:04;101639.31;;;7.14;78.11
29941;BME280;16801;53.562;10.038;2023-01-31T04:54:25;101641.16;;;6.56;80.22
29941;BME280;16801;53.562;10.038;2023-01-31T04:57:46;101642.19;;;6.97;79.58
29941;BME280;16801;53.562;10.038;2023-01-31T05:01:07;101657.84;;;6.61;80.56
29941;BME280;16801;53.562;10.038;2023-01-31T05:04:28;101650.31;;;6.95;79.46
29941;BME280;16801;53.562;10.038;2023-01-31T05:07:50;101641.94;;;6.58;81.10
29941;BME280;16801;53.562;10.038;2023-01-31T05:11:11;101657.03;;;7.31;78.42
29941;BME280;16801;53.562;10.038;2023-01-31T05:14:32;101637.34;;;7.17;77.91
29941;BME280;16801;53.562;10.038;2023-01-31T05:17:54;101648.28;;;7.69;76.54
29941;BME280;16801;53.562;10.038;2023-01-31T05:21:21;101635.50;;;7.04;78.69
29941;BME280;16801;53.562;10.038;2023-01-31T05:24:43;101637.59;;;6.85;79.54
29941;BME280;16801;53.562;10.038;2023-01-31T05:28:04;101637.72;;;6.68;80.12
29941;BME280;16801;53.562;10.038;2023-01-31T05:31:25;101631.84;;;6.77;79.61
29941;BME280;16801;53.562;10.038;2023-01-31T05:34:46;101629.53;;;6.85;79.47
29941;BME280;16801;53.562;10.038;2023-01-31T05:38:07;101623.34;;;6.98;79.97
29941;BME280;16801;53.562;10.038;2023-01-31T05:41:30;101620.94;;;6.94;80.24
29941;BME280;16801;53.562;10.038;2023-01-31T05:44:51;101613.28;;;6.74;79.73
29941;BME280;16801;53.562;10.038;2023-01-31T05:48:12;101608.31;;;7.10;78.64
29941;BME280;16801;53.562;10.038;2023-01-31T05:51:32;101615.69;;;6.92;79.60
29941;BME280;16801;53.562;10.038;2023-01-31T05:54:53;101596.22;;;6.75;80.08
29941;BME280;16801;53.562;10.038;2023-01-31T05:58:16;101598.06;;;7.02;78.46
29941;BME280;16801;53.562;10.038;2023-01-31T06:01:37;101596.06;;;6.78;79.38
29941;BME280;16801;53.562;10.038;2023-01-31T06:04:58;101604.66;;;6.83;79.75
29941;BME280;16801;53.562;10.038;2023-01-31T06:08:19;101599.69;;;6.91;78.70
29941;BME280;16801;53.562;10.038;2023-01-31T06:11:40;101607.94;;;7.02;78.89
29941;BME280;16801;53.562;10.038;2023-01-31T06:15:03;101601.97;;;6.83;79.17
29941;BME280;16801;53.562;10.038;2023-01-31T06:18:24;101596.91;;;6.78;79.04
29941;BME280;16801;53.562;10.038;2023-01-31T06:21:46;101587.41;;;6.59;79.89
29941;BME280;16801;53.562;10.038;2023-01-31T06:25:07;101587.72;;;7.10;78.30
29941;BME280;16801;53.562;10.038;2023-01-31T06:28:28;101581.19;;;7.28;77.59
29941;BME280;16801;53.562;10.038;2023-01-31T06:31:51;101576.63;;;7.16;78.09
29941;BME280;16801;53.562;10.038;2023-01-31T06:35:12;101601.59;;;6.75;79.26
29941;BME280;16801;53.562;10.038;2023-01-31T06:38:33;101574.97;;;6.72;79.67
29941;BME280;16801;53.562;10.038;2023-01-31T06:41:54;101576.63;;;7.02;78.55
29941;BME280;16801;53.562;10.038;2023-01-31T06:45:15;101579.31;;;7.02;77.71
29941;BME280;16801;53.562;10.038;2023-01-31T06:48:38;101560.91;;;6.68;79.15
29941;BME280;16801;53.562;10.038;2023-01-31T06:51:58;101565.03;;;6.60;79.47
29941;BME280;16801;53.562;10.038;2023-01-31T06:55:19;101554.22;;;7.03;77.92
29941;BME280;16801;53.562;10.038;2023-01-31T06:58:40;101550.19;;;7.10;77.83
29941;BME280;16801;53.562;10.038;2023-01-31T07:02:00;101544.38;;;6.90;78.23
29941;BME280;16801;53.562;10.038;2023-01-31T07:05:23;101528.06;;;7.21;77.70
29941;BME280;16801;53.562;10.038;2023-01-31T07:08:44;101532.94;;;7.14;77.50
29941;BME280;16801;53.562;10.038;2023-01-31T07:12:04;101520.84;;;7.62;75.60
29941;BME280;16801;53.562;10.038;2023-01-31T07:15:26;101516.81;;;7.28;76.47
29941;BME280;16801;53.562;10.038;2023-01-31T07:18:47;101515.06;;;7.01;77.71
29941;BME280;16801;53.562;10.038;2023-01-31T07:22:09;101507.53;;;6.79;78.50
29941;BME280;16801;53.562;10.038;2023-01-31T07:25:30;101496.25;;;6.88;78.72
29941;BME280;16801;53.562;10.038;2023-01-31T07:28:52;101478.94;;;7.20;77.31
29941;BME280;16801;53.562;10.038;2023-01-31T07:32:13;101480.38;;;7.12;77.49
29941;BME280;16801;53.562;10.038;2023-01-31T07:35:34;101463.91;;;7.18;76.83
29941;BME280;16801;53.562;10.038;2023-01-31T07:38:56;101465.53;;;7.20;77.78
29941;BME280;16801;53.562;10.038;2023-01-31T07:42:18;101471.88;;;7.05;78.15
29941;BME280;16801;53.562;10.038;2023-01-31T07:45:39;101455.34;;;7.52;76.61
29941;BME280;16801;53.562;10.038;2023-01-31T07:49:01;101454.16;;;7.44;77.23
29941;BME280;16801;53.562;10.038;2023-01-31T07:52:22;101440.88;;;7.55;77.32
29941;BME280;16801;53.562;10.038;2023-01-31T07:55:45;101423.69;;;7.57;76.44
29941;BME280;16801;53.562;10.038;2023-01-31T07:59:06;101438.72;;;7.20;78.08
29941;BME280;16801;53.562;10.038;2023-01-31T08:02:27;101428.31;;;7.55;76.77
29941;BME280;16801;53.562;10.038;2023-01-31T08:06:07;101430.94;;;7.43;77.18
29941;BME280;16801;53.562;10.038;2023-01-31T08:09:29;101440.34;;;7.23;78.01
29941;BME280;16801;53.562;10.038;2023-01-31T08:12:51;101426.94;;;7.23;78.09
29941;BME280;16801;53.562;10.038;2023-01-31T08:16:12;101422.06;;;7.15;78.23
29941;BME280;16801;53.562;10.038;2023-01-31T08:19:33;101403.94;;;7.46;77.23
29941;BME280;16801;53.562;10.038;2023-01-31T08:22:55;101402.13;;;7.46;77.49
29941;BME280;16801;53.562;10.038;2023-01-31T08:26:18;101400.88;;;7.25;78.15
29941;BME280;16801;53.562;10.038;2023-01-31T08:29:41;101403.53;;;7.52;77.18
29941;BME280;16801;53.562;10.038;2023-01-31T08:33:02;101400.34;;;7.59;77.48
29941;BME280;16801;53.562;10.038;2023-01-31T08:36:24;101405.03;;;7.56;77.74
29941;BME280;16801;53.562;10.038;2023-01-31T08:39:45;101390.22;;;7.50;77.55
29941;BME280;16801;53.562;10.038;2023-01-31T08:43:07;101379.66;;;7.74;77.60
29941;BME280;16801;53.562;10.038;2023-01-31T08:46:32;101382.78;;;7.41;77.46
29941;BME280;16801;53.562;10.038;2023-01-31T08:49:53;101365.66;;;7.69;76.57
29941;BME280;16801;53.562;10.038;2023-01-31T08:53:14;101364.69;;;7.45;77.57
29941;BME280;16801;53.562;10.038;2023-01-31T08:56:35;101367.28;;;7.71;76.73
29941;BME280;16801;53.562;10.038;2023-01-31T08:59:55;101345.81;;;7.71;76.70
29941;BME280;16801;53.562;10.038;2023-01-31T09:03:17;101338.94;;;7.55;76.95
29941;BME280;16801;53.562;10.038;2023-01-31T09:06:38;101356.97;;;7.65;76.81
29941;BME280;16801;53.562;10.038;2023-01-31T09:09:59;101352.25;;;7.69;76.88
29941;BME280;16801;53.562;10.038;2023-01-31T09:13:21;101329.81;;;7.70;77.29
29941;BME280;16801;53.562;10.038;2023-01-31T09:16:42;101319.91;;;8.21;76.40
29941;BME280;16801;53.562;10.038;2023-01-31T09:20:07;101311.78;;;7.34;79.48
29941;BME280;16801;53.562;10.038;2023-01-31T09:23:28;101292.69;;;7.64;78.67
29941;BME280;16801;53.562;10.038;2023-01-31T09:26:49;101289.69;;;7.68;78.31
29941;BME280;16801;53.562;10.038;2023-01-31T09:30:13;101276.56;;;7.64;78.77
29941;BME280;16801;53.562;10.038;2023-01-31T09:33:35;101298.47;;;7.45;78.68
29941;BME280;16801;53.562;10.038;2023-01-31T09:36:57;101279.69;;;7.33;79.78
29941;BME280;16801;53.562;10.038;2023-01-31T09:40:20;101270.69;;;7.46;80.31
29941;BME280;16801;53.562;10.038;2023-01-31T09:43:46;101265.66;;;7.42;81.16
29941;BME280;16801;53.562;10.038;2023-01-31T09:47:15;101255.50;;;7.07;82.23
29941;BME280;16801;53.562;10.038;2023-01-31T09:50:43;101266.94;;;7.23;82.37
29941;BME280;16801;53.562;10.038;2023-01-31T09:54:16;101256.94;;;7.25;82.41
29941;BME280;16801;53.562;10.038;2023-01-31T09:57:45;101265.63;;;7.29;81.66
29941;BME280;16801;53.562;10.038;2023-01-31T10:01:13;101246.28;;;7.11;83.49
29941;BME280;16801;53.562;10.038;2023-01-31T10:04:44;101242.56;;;7.14;84.06
29941;BME280;16801;53.562;10.038;2023-01-31T10:08:14;101234.84;;;7.22;83.65
29941;BME280;16801;53.562;10.038;2023-01-31T10:11:42;101220.03;;;7.54;82.19
29941;BME280;16801;53.562;10.038;2023-01-31T10:15:12;101223.66;;;7.15;84.14
29941;BME280;16801;53.562;10.038;2023-01-31T10:18:37;101223.91;;;7.50;84.48
29941;BME280;16801;53.562;10.038;2023-01-31T10:22:04;101214.25;;;7.48;84.27
29941;BME280;16801;53.562;10.038;2023-01-31T10:25:32;101204.16;;;7.51;84.89
29941;BME280;16801;53.562;10.038;2023-01-31T10:28:58;101199.66;;;7.52;84.83
29941;BME280;16801;53.562;10.038;2023-01-31T10:32:23;101188.06;;;7.51;85.18
29941;BME280;16801;53.562;10.038;2023-01-31T10:35:50;101180.75;;;7.53;85.35
29941;BME280;16801;53.562;10.038;2023-01-31T10:39:17;101187.84;;;7.67;85.88
29941;BME280;16801;53.562;10.038;2023-01-31T10:42:43;101175.31;;;7.55;85.84
29941;BME280;16801;53.562;10.038;2023-01-31T10:46:10;101160.41;;;7.51;86.90
29941;BME280;16801;53.562;10.038;2023-01-31T10:49:31;101161.47;;;7.84;85.01
29941;BME280;16801;53.562;10.038;2023-01-31T10:53:03;101140.63;;;7.64;85.10
29941;BME280;16801;53.562;10.038;2023-01-31T10:56:31;101150.94;;;7.45;86.69
29941;BME280;16801;53.562;10.038;2023-01-31T10:59:53;101136.59;;;7.82;85.37
29941;BME280;16801;53.562;10.038;2023-01-31T11:03:16;101143.41;;;7.63;86.11
29941;BME280;16801;53.562;10.038;2023-01-31T11:06:37;101124.06;;;7.70;86.52
29941;BME280;16801;53.562;10.038;2023-01-31T11:09:58;101125.13;;;7.68;85.69
29941;BME280;16801;53.562;10.038;2023-01-31T11:13:19;101124.34;;;7.55;86.62
29941;BME280;16801;53.562;10.038;2023-01-31T11:16:40;101128.09;;;7.88;85.87
29941;BME280;16801;53.562;10.038;2023-01-31T11:20:03;101143.31;;;8.00;85.38
29941;BME280;16801;53.562;10.038;2023-01-31T11:23:28;101142.69;;;7.84;85.24
29941;BME280;16801;53.562;10.038;2023-01-31T11:26:51;101127.34;;;7.86;85.84
29941;BME280;16801;53.562;10.038;2023-01-31T11:30:20;101134.19;;;7.67;87.13
29941;BME280;16801;53.562;10.038;2023-01-31T11:33:44;101117.38;;;7.88;86.90
29941;BME280;16801;53.562;10.038;2023-01-31T11:37:15;101101.44;;;8.22;85.85
29941;BME280;16801;53.562;10.038;2023-01-31T11:40:36;101115.47;;;8.01;100.00
29941;BME280;16801;53.562;10.038;2023-01-31T11:44:11;101107.13;;;7.93;100.00
29941;BME280;16801;53.562;10.038;2023-01-31T11:47:38;101094.97;;;7.77;100.00
29941;BME280;16801;53.562;10.038;2023-01-31T11:51:02;101101.50;;;8.09;100.00
29941;BME280;16801;53.562;10.038;2023-01-31T11:54:27;101094.53;;;8.06;100.00
29941;BME280;16801;53.562;10.038;2023-01-31T11:57:57;101083.31;;;7.89;100.00
29941;BME280;16801;53.562;10.038;2023-01-31T12:01:21;101077.94;;;7.89;100.00
29941;BME280;16801;53.562;10.038;2023-01-31T12:04:43;101073.16;;;7.81;100.00
29941;BME280;16801;53.562;10.038;2023-01-31T12:08:05;101064.88;;;8.08;100.00
29941;BME280;16801;53.562;10.038;2023-01-31T12:11:29;101066.41;;;8.23;100.00
29941;BME280;16801;53.562;10.038;2023-01-31T12:14:54;101060.88;;;7.90;100.00
29941;BME280;16801;53.562;10.038;2023-01-31T12:18:20;101065.72;;;8.08;100.00
29941;BME280;16801;53.562;10.038;2023-01-31T12:21:50;101040.06;;;8.28;100.00
29941;BME280;16801;53.562;10.038;2023-01-31T12:25:21;101051.44;;;8.32;100.00
29941;BME280;16801;53.562;10.038;2023-01-31T12:29:03;101054.00;;;8.33;100.00
29941;BME280;16801;53.562;10.038;2023-01-31T12:32:37;101043.88;;;8.37;100.00
29941;BME280;16801;53.562;10.038;2023-01-31T12:36:10;101030.81;;;8.43;100.00
29941;BME280;16801;53.562;10.038;2023-01-31T12:39:49;101047.69;;;8.34;100.00
29941;BME280;16801;53.562;10.038;2023-01-31T12:43:24;101034.03;;;8.48;100.00
29941;BME280;16801;53.562;10.038;2023-01-31T12:47:00;101019.50;;;8.51;100.00
29941;BME280;16801;53.562;10.038;2023-01-31T12:50:31;101020.88;;;8.22;100.00
29941;BME280;16801;53.562;10.038;2023-01-31T12:54:05;101025.13;;;8.59;100.00
29941;BME280;16801;53.562;10.038;2023-01-31T12:57:34;101012.41;;;8.50;100.00
29941;BME280;16801;53.562;10.038;2023-01-31T13:01:03;101008.63;;;8.52;100.00
29941;BME280;16801;53.562;10.038;2023-01-31T13:04:32;101000.22;;;8.57;100.00
29941;BME280;16801;53.562;10.038;2023-01-31T13:07:59;100996.06;;;8.53;100.00
29941;BME280;16801;53.562;10.038;2023-01-31T13:11:24;100986.16;;;8.86;100.00
29941;BME280;16801;53.562;10.038;2023-01-31T13:14:49;100986.31;;;8.74;100.00
29941;BME280;16801;53.562;10.038;2023-01-31T13:18:12;100966.59;;;8.84;100.00
29941;BME280;16801;53.562;10.038;2023-01-31T13:21:39;100982.59;;;9.08;100.00
29941;BME280;16801;53.562;10.038;2023-01-31T13:25:13;100982.75;;;9.18;100.00
29941;BME280;16801;53.562;10.038;2023-01-31T13:28:40;100994.50;;;8.61;100.00
29941;BME280;16801;53.562;10.038;2023-01-31T13:32:09;100986.03;;;9.10;100.00
29941;BME280;16801;53.562;10.038;2023-01-31T13:35:34;100981.16;;;9.15;100.00
29941;BME280;16801;53.562;10.038;2023-01-31T13:39:01;100987.13;;;9.19;100.00
29941;BME280;16801;53.562;10.038;2023-01-31T13:42:25;100983.34;;;9.10;100.00
29941;BME280;16801;53.562;10.038;2023-01-31T13:45:49;100980.41;;;9.13;100.00
29941;BME280;16801;53.562;10.038;2023-01-31T13:49:16;100977.31;;;9.29;100.00
29941;BME280;16801;53.562;10.038;2023-01-31T13:52:43;100966.44;;;9.30;100.00
29941;BME280;16801;53.562;10.038;2023-01-31T13:56:09;100959.19;;;9.42;100.00
29941;BME280;16801;53.562;10.038;2023-01-31T13:59:35;100945.75;;;9.31;100.00
29941;BME280;16801;53.562;10.038;2023-01-31T14:03:01;100942.03;;;9.54;100.00
29941;BME280;16801;53.562;10.038;2023-01-31T14:06:21;100936.75;;;9.63;100.00
29941;BME280;16801;53.562;10.038;2023-01-31T14:09:44;100941.47;;;9.39;100.00
29941;BME280;16801;53.562;10.038;2023-01-31T14:13:26;100927.59;;;9.12;100.00
29941;BME280;16801;53.562;10.038;2023-01-31T14:16:48;100937.75;;;9.20;100.00
29941;BME280;16801;53.562;10.038;2023-01-31T14:20:24;100932.06;;;9.34;100.00
29941;BME280;16801;53.562;10.038;2023-01-31T14:23:46;100932.59;;;9.17;100.00
29941;BME280;16801;53.562;10.038;2023-01-31T14:27:15;100944.13;;;9.50;100.00
29941;BME280;16801;53.562;10.038;2023-01-31T14:30:42;100943.28;;;9.39;100.00
29941;BME280;16801;53.562;10.038;2023-01-31T14:34:14;100944.63;;;9.44;100.00
29941;BME280;16801;53.562;10.038;2023-01-31T14:37:44;100949.19;;;9.33;100.00
29941;BME280;16801;53.562;10.038;2023-01-31T14:41:18;100939.28;;;9.33;100.00
29941;BME280;16801;53.562;10.038;2023-01-31T14:44:51;100922.44;;;9.20;100.00
29941;BME280;16801;53.562;10.038;2023-01-31T14:48:35;100919.56;;;9.44;100.00
29941;BME280;16801;53.562;10.038;2023-01-31T14:52:13;100914.72;;;9.27;100.00
29941;BME280;16801;53.562;10.038;2023-01-31T14:55:47;100924.25;;;9.31;100.00
29941;BME280;16801;53.562;10.038;2023-01-31T14:59:26;100932.44;;;9.29;100.00
29941;BME280;16801;53.562;10.038;2023-01-31T15:02:51;100929.22;;;9.46;100.00
29941;BME280;16801;53.562;10.038;2023-01-31T15:06:21;100927.44;;;9.68;100.00
29941;BME280;16801;53.562;10.038;2023-01-31T15:09:45;100936.47;;;9.66;100.00
29941;BME280;16801;53.562;10.038;2023-01-31T15:13:41;100923.78;;;9.57;100.00
29941;BME280;16801;53.562;10.038;2023-01-31T15:17:09;100926.28;;;9.70;100.00
29941;BME280;16801;53.562;10.038;2023-01-31T15:20:42;100907.75;;;9.56;100.00
29941;BME280;16801;53.562;10.038;2023-01-31T15:24:15;100928.88;;;9.72;100.00
29941;BME280;16801;53.562;10.038;2023-01-31T15:27:39;100935.88;;;9.63;100.00
29941;BME280;16801;53.562;10.038;2023-01-31T15:31:03;100945.84;;;9.72;100.00
29941;BME280;16801;53.562;10.038;2023-01-31T15:34:29;100938.13;;;9.79;100.00
29941;BME280;16801;53.562;10.038;2023-01-31T15:37:54;100944.94;;;10.14;100.00
29941;BME280;16801;53.562;10.038;2023-01-31T15:41:23;100940.53;;;9.93;100.00
29941;BME280;16801;53.562;10.038;2023-01-31T15:44:44;100943.94;;;9.95;100.00
29941;BME280;16801;53.562;10.038;2023-01-31T15:48:10;100944.84;;;10.05;100.00
29941;BME280;16801;53.562;10.038;2023-01-31T15:51:32;100972.50;;;9.86;100.00
29941;BME280;16801;53.562;10.038;2023-01-31T15:54:54;100957.78;;;10.22;100.00
29941;BME280;16801;53.562;10.038;2023-01-31T15:58:19;100945.47;;;10.29;100.00
29941;BME280;16801;53.562;10.038;2023-01-31T16:01:46;100939.38;;;9.95;100.00
29941;BME280;16801;53.562;10.038;2023-01-31T16:05:07;100955.34;;;10.08;100.00
29941;BME280;16801;53.562;10.038;2023-01-31T16:08:31;100942.78;;;9.97;100.00
29941;BME280;16801;53.562;10.038;2023-01-31T16:11:53;100956.25;;;9.97;100.00
29941;BME280;16801;53.562;10.038;2023-01-31T16:15:19;100939.06;;;9.89;100.00
29941;BME280;16801;53.562;10.038;2023-01-31T16:18:45;101050.16;;;9.48;100.00
29941;BME280;16801;53.562;10.038;2023-01-31T16:22:23;101070.66;;;8.49;100.00
29941;BME280;16801;53.562;10.038;2023-01-31T16:25:49;101014.28;;;8.71;100.00
29941;BME280;16801;53.562;10.038;2023-01-31T16:29:14;100984.19;;;8.55;100.00
29941;BME280;16801;53.562;10.038;2023-01-31T16:32:38;100989.94;;;8.62;100.00
29941;BME280;16801;53.562;10.038;2023-01-31T16:36:03;101017.75;;;8.28;100.00
29941;BME280;16801;53.562;10.038;2023-01-31T16:39:32;100994.59;;;8.14;100.00
29941;BME280;16801;53.562;10.038;2023-01-31T16:43:08;101003.22;;;8.41;100.00
29941;BME280;16801;53.562;10.038;2023-01-31T16:46:36;100999.16;;;7.90;100.00
29941;BME280;16801;53.562;10.038;2023-01-31T16:50:24;101000.38;;;7.97;100.00
29941;BME280;16801;53.562;10.038;2023-01-31T16:54:12;101004.38;;;8.15;100.00
29941;BME280;16801;53.562;10.038;2023-01-31T16:57:35;101014.38;;;8.13;100.00
29941;BME280;16801;53.562;10.038;2023-01-31T17:01:08;101006.72;;;8.20;100.00
29941;BME280;16801;53.562;10.038;2023-01-31T17:04:30;101004.63;;;8.23;100.00
29941;BME280;16801;53.562;10.038;2023-01-31T17:07:52;101021.47;;;8.49;100.00
29941;BME280;16801;53.562;10.038;2023-01-31T17:11:16;101042.66;;;8.30;100.00
29941;BME280;16801;53.562;10.038;2023-01-31T17:14:37;101023.97;;;8.39;100.00
29941;BME280;16801;53.562;10.038;2023-01-31T17:17:58;101024.63;;;8.54;100.00
29941;BME280;16801;53.562;10.038;2023-01-31T17:21:20;101016.81;;;8.62;100.00
29941;BME280;16801;53.562;10.038;2023-01-31T17:24:43;101042.47;;;8.55;100.00
29941;BME280;16801;53.562;10.038;2023-01-31T17:28:05;101027.59;;;8.73;100.00
29941;BME280;16801;53.562;10.038;2023-01-31T17:31:26;101008.00;;;8.60;100.00
29941;BME280;16801;53.562;10.038;2023-01-31T17:34:47;101035.16;;;8.79;100.00
29941;BME280;16801;53.562;10.038;2023-01-31T17:38:10;101074.63;;;8.90;100.00
29941;BME280;16801;53.562;10.038;2023-01-31T17:41:33;101044.44;;;8.97;100.00
29941;BME280;16801;53.562;10.038;2023-01-31T17:44:53;101049.34;;;8.81;100.00
29941;BME280;16801;53.562;10.038;2023-01-31T17:48:14;101049.81;;;8.97;100.00
29941;BME280;16801;53.562;10.038;2023-01-31T17:51:36;101048.97;;;8.85;100.00